Abrela — EAVW — position and weather

sailwx.info

Track history (hours):
 
Tides and Currents Weather Stations Pressure Air Temp Water Temp Dewpoint Dewpoint Depression Visibility Wind Speed Wind Dir Waves Ship Positions

Abrela

Last reported at 2017-Jun-20 18:14 UTC. Time now 2017-Jun-23 15:23 UTC.
Position N 43°53' W 005°27'.

Length 30 m.

MMSI: 224204490.

Date/timePositionNaut miles runAvg speedWind from/ knotsBaromVisibWave heightAir tempDewpointWater temp
2017-Jun-20 18:14N 43°53' W 005°27'0 0.6
2017-Jun-20 17:56N 43°53' W 005°27'0 0.4
2017-Jun-20 17:24N 43°53' W 005°26'0 0.7
2017-Jun-20 16:47N 43°53' W 005°26'0 1.0
2017-Jun-20 16:23N 43°53' W 005°25'10 1.3
2017-Jun-20 08:57N 43°49' W 005°12'2 1.7
2017-Jun-20 08:01N 43°49' W 005°11'1 1.7
2017-Jun-20 07:13N 43°48' W 005°09'0 1.5
2017-Jun-20 06:53N 43°48' W 005°08'2 1.7
2017-Jun-20 05:53N 43°47' W 005°06'10 0.4
2017-Jun-19 02:04N 43°37' W 005°03'4 8.7
2017-Jun-19 01:36N 43°37' W 005°09'2 8.8
2017-Jun-19 01:23N 43°36' W 005°11'4 8.6
2017-Jun-19 00:56N 43°36' W 005°17'  
2017-Jun-16 20:00N 43°33' W 005°42'4 8.2
2017-Jun-16 19:29N 43°34' W 005°36'510.2
2017-Jun-16 19:00N 43°35' W 005°29'510.2
2017-Jun-16 18:30N 43°36' W 005°22'710.1
2017-Jun-16 17:48N 43°37' W 005°13'1 0.1
2017-Jun-16 00:37N 43°36' W 005°13'9 1.3
2017-Jun-15 17:56N 43°35' W 005°25'8 9.7
2017-Jun-15 17:08N 43°36' W 005°14'110.1
2017-Jun-15 17:00N 43°36' W 005°12'12 0.3
2017-Jun-13 19:48N 43°35' W 005°29'3 9.2
2017-Jun-13 19:29N 43°35' W 005°33'4 9.2
2017-Jun-13 19:00N 43°34' W 005°39'2 4.2
2017-Jun-13 18:30N 43°33' W 005°42'0 0.0
2017-Jun-13 17:39N 43°33' W 005°42'0 3.1
2017-Jun-13 17:30N 43°34' W 005°41'510.2
2017-Jun-13 17:00N 43°36' W 005°35'510.1
2017-Jun-13 16:30N 43°40' W 005°30'25 3.1
2017-Jun-13 08:20N 43°43' W 004°55'14 1.9
2017-Jun-13 01:10N 43°49' W 005°12'0 2.0
2017-Jun-13 01:00N 43°49' W 005°13'1 1.8
2017-Jun-13 00:17N 43°50' W 005°15'4 0.6
2017-Jun-12 16:43N 43°51' W 005°20'0 1.7
2017-Jun-12 16:26N 43°52' W 005°20'11 1.6
2017-Jun-12 09:25N 43°53' W 005°36'2 1.6
2017-Jun-12 08:16N 43°53' W 005°38'1 1.7
2017-Jun-12 07:45N 43°53' W 005°39'0 1.7
2017-Jun-12 07:30N 43°53' W 005°40'2 1.8
2017-Jun-12 06:23N 43°54' W 005°43'0 1.1
2017-Jun-12 05:58N 43°54' W 005°43'  
Track history (hours):
 
Tides and Currents Weather Stations Pressure Air Temp Water Temp Dewpoint Dewpoint Depression Visibility Wind Speed Wind Dir Waves Ship Positions

Abrela

Last reported at 2017-Jun-20 18:14 UTC. Time now 2017-Jun-23 15:23 UTC.
Position N 43°53' W 005°27'.

Length 30 m.

MMSI: 224204490.

Date/timePositionNaut miles runAvg speedWind from/ knotsBaromVisibWave heightAir tempDewpointWater temp
2017-Jun-20 18:14N 43°53' W 005°27'0 0.6
2017-Jun-20 17:56N 43°53' W 005°27'0 0.4
2017-Jun-20 17:24N 43°53' W 005°26'0 0.7
2017-Jun-20 16:47N 43°53' W 005°26'0 1.0
2017-Jun-20 16:23N 43°53' W 005°25'10 1.3
2017-Jun-20 08:57N 43°49' W 005°12'2 1.7
2017-Jun-20 08:01N 43°49' W 005°11'1 1.7
2017-Jun-20 07:13N 43°48' W 005°09'0 1.5
2017-Jun-20 06:53N 43°48' W 005°08'2 1.7
2017-Jun-20 05:53N 43°47' W 005°06'10 0.4
2017-Jun-19 02:04N 43°37' W 005°03'4 8.7
2017-Jun-19 01:36N 43°37' W 005°09'2 8.8
2017-Jun-19 01:23N 43°36' W 005°11'4 8.6
2017-Jun-19 00:56N 43°36' W 005°17'  
2017-Jun-16 20:00N 43°33' W 005°42'4 8.2
2017-Jun-16 19:29N 43°34' W 005°36'510.2
2017-Jun-16 19:00N 43°35' W 005°29'510.2
2017-Jun-16 18:30N 43°36' W 005°22'710.1
2017-Jun-16 17:48N 43°37' W 005°13'1 0.1
2017-Jun-16 00:37N 43°36' W 005°13'9 1.3
2017-Jun-15 17:56N 43°35' W 005°25'8 9.7
2017-Jun-15 17:08N 43°36' W 005°14'110.1
2017-Jun-15 17:00N 43°36' W 005°12'12 0.3
2017-Jun-13 19:48N 43°35' W 005°29'3 9.2
2017-Jun-13 19:29N 43°35' W 005°33'4 9.2
2017-Jun-13 19:00N 43°34' W 005°39'2 4.2
2017-Jun-13 18:30N 43°33' W 005°42'0 0.0
2017-Jun-13 17:39N 43°33' W 005°42'0 3.1
2017-Jun-13 17:30N 43°34' W 005°41'510.2
2017-Jun-13 17:00N 43°36' W 005°35'510.1
2017-Jun-13 16:30N 43°40' W 005°30'25 3.1
2017-Jun-13 08:20N 43°43' W 004°55'14 1.9
2017-Jun-13 01:10N 43°49' W 005°12'0 2.0
2017-Jun-13 01:00N 43°49' W 005°13'1 1.8
2017-Jun-13 00:17N 43°50' W 005°15'4 0.6
2017-Jun-12 16:43N 43°51' W 005°20'0 1.7
2017-Jun-12 16:26N 43°52' W 005°20'11 1.6
2017-Jun-12 09:25N 43°53' W 005°36'2 1.6
2017-Jun-12 08:16N 43°53' W 005°38'1 1.7
2017-Jun-12 07:45N 43°53' W 005°39'0 1.7
2017-Jun-12 07:30N 43°53' W 005°40'2 1.8
2017-Jun-12 06:23N 43°54' W 005°43'0 1.1
2017-Jun-12 05:58N 43°54' W 005°43'  

Dump ship's entire track history